Time;durP1;ratioP1;P1;durP2;ratioP2;P2;SDS_P1;SDS_P2;PMS_P1;PMS_P2;Temp;Humidity;BMP_temperature;BMP_pressure;BME280_temperature;BME280_humidity;BME280_pressure;Samples;Min_cycle;Max_cycle;Signal;HPM_P1;HPM_P2
2022/03/14 00:01:20;;;;;;;7.78;7.38;;;;;;;0.63;77.90;102486.19;5043034;28;20037;-69
2022/03/14 00:03:50;;;;;;;7.55;7.15;;;;;;;0.60;78.59;102482.88;5045935;28;20357;-69
2022/03/14 00:06:17;;;;;;;8.00;7.60;;;;;;;0.58;78.47;102482.06;5039234;28;20420;-68
2022/03/14 00:08:45;;;;;;;8.27;7.80;;;;;;;0.60;78.47;102483.72;5047594;28;20036;-68
2022/03/14 00:11:14;;;;;;;8.10;7.70;;;;;;;0.59;77.93;102486.38;5026610;28;20026;-68
2022/03/14 00:13:39;;;;;;;7.82;7.43;;;;;;;0.65;78.22;102496.56;5038420;28;20075;-67
2022/03/14 00:16:08;;;;;;;7.88;7.47;;;;;;;0.70;78.71;102492.88;5037348;28;20138;-69
2022/03/14 00:18:35;;;;;;;7.53;7.13;;;;;;;0.73;77.74;102481.44;5035662;28;20116;-68
2022/03/14 00:21:01;;;;;;;7.82;7.43;;;;;;;0.79;78.10;102478.56;5032528;28;20064;-68
2022/03/14 00:23:27;;;;;;;7.63;7.22;;;;;;;0.39;78.71;102484.56;5047660;28;20026;-68
2022/03/14 00:25:54;;;;;;;7.90;7.50;;;;;;;0.72;77.76;102493.63;5023713;28;20027;-68
2022/03/14 00:28:20;;;;;;;8.05;7.65;;;;;;;0.75;78.04;102488.31;5030620;28;20045;-67
2022/03/14 00:30:46;;;;;;;7.93;7.53;;;;;;;0.78;78.69;102492.53;5030662;28;20029;-67
2022/03/14 00:33:11;;;;;;;8.70;8.20;;;;;;;0.60;78.18;102473.28;5029955;28;20025;-68
2022/03/14 00:35:37;;;;;;;8.20;7.70;;;;;;;0.63;78.46;102487.94;5028944;28;20018;-68
2022/03/14 00:38:03;;;;;;;7.32;6.97;;;;;;;0.70;77.90;102494.63;5030797;28;20029;-68
2022/03/14 00:40:28;;;;;;;8.30;7.85;;;;;;;0.64;77.81;102500.94;5030566;28;20127;-68
2022/03/14 00:42:54;;;;;;;7.72;7.32;;;;;;;0.69;78.51;102496.38;5033918;28;20030;-68
2022/03/14 00:45:22;;;;;;;7.68;7.28;;;;;;;0.71;77.77;102498.94;5036305;28;20025;-68
2022/03/14 00:47:47;;;;;;;7.25;6.95;;;;;;;0.62;78.31;102500.16;5042909;28;20391;-68
2022/03/14 00:50:13;;;;;;;7.57;7.18;;;;;;;0.76;78.23;102497.84;5044292;28;20025;-67
2022/03/14 00:52:38;;;;;;;7.75;7.35;;;;;;;0.79;78.45;102502.06;5046125;28;20123;-67
2022/03/14 00:55:04;;;;;;;7.50;7.10;;;;;;;0.83;78.14;102508.88;5045346;28;20511;-67
2022/03/14 00:57:29;;;;;;;7.03;6.72;;;;;;;0.81;77.51;102506.34;5035275;28;20639;-67
2022/03/14 00:59:55;;;;;;;7.85;7.45;;;;;;;0.80;77.43;102517.69;5032501;28;20033;-67
2022/03/14 01:02:21;;;;;;;7.97;7.57;;;;;;;0.78;78.25;102523.91;5030851;28;20057;-67
2022/03/14 01:04:48;;;;;;;7.93;7.53;;;;;;;0.78;78.42;102516.06;5032574;28;20535;-67
2022/03/14 01:07:13;;;;;;;8.85;8.32;;;;;;;0.79;78.60;102515.97;5031944;28;20060;-68
2022/03/14 01:09:39;;;;;;;7.70;7.30;;;;;;;0.69;78.68;102509.44;5032396;28;20061;-68
2022/03/14 01:12:05;;;;;;;8.65;8.15;;;;;;;0.72;78.56;102504.09;5032136;28;20032;-67
2022/03/14 01:14:31;;;;;;;9.68;9.07;;;;;;;0.72;78.79;102506.69;5030878;28;20033;-67
2022/03/14 01:16:57;;;;;;;7.75;7.35;;;;;;;0.74;78.60;102509.28;5033335;28;20040;-68
2022/03/14 01:19:22;;;;;;;7.45;7.05;;;;;;;0.73;78.72;102505.78;5046584;28;20548;-68
2022/03/14 01:21:48;;;;;;;8.35;7.85;;;;;;;0.63;78.71;102512.31;5035541;28;20021;-68
2022/03/14 01:24:15;;;;;;;7.50;7.10;;;;;;;0.57;79.29;102520.38;5034103;28;20744;-68
2022/03/14 01:26:41;;;;;;;7.65;7.25;;;;;;;0.54;78.92;102517.91;5033847;28;20093;-68
2022/03/14 01:29:07;;;;;;;7.90;7.50;;;;;;;0.60;78.90;102525.50;5032269;28;20127;-67
2022/03/14 01:31:33;;;;;;;7.20;6.88;;;;;;;0.52;78.93;102506.69;5033406;28;20055;-68
2022/03/14 01:33:59;;;;;;;7.50;7.10;;;;;;;0.63;79.00;102525.38;5032834;28;20029;-68
2022/03/14 01:36:25;;;;;;;7.53;7.13;;;;;;;0.63;79.42;102522.75;5033524;28;20037;-67
2022/03/14 01:38:51;;;;;;;7.78;7.38;;;;;;;0.59;79.05;102518.59;5033076;28;20029;-68
2022/03/14 01:41:18;;;;;;;7.22;6.93;;;;;;;0.62;79.08;102526.28;5033245;28;20059;-67
2022/03/14 01:43:45;;;;;;;7.65;7.25;;;;;;;0.59;78.93;102522.94;5033256;28;20508;-67
2022/03/14 01:46:13;;;;;;;7.70;7.30;;;;;;;0.64;79.30;102534.03;5032735;28;20052;-68
2022/03/14 01:48:38;;;;;;;7.65;7.25;;;;;;;0.59;79.53;102535.97;5033586;28;20713;-68
2022/03/14 01:51:04;;;;;;;7.43;7.03;;;;;;;0.55;79.74;102535.28;5044908;28;20045;-68
2022/03/14 01:53:30;;;;;;;7.82;7.43;;;;;;;0.55;79.44;102536.13;5046386;28;20030;-67
2022/03/14 01:55:56;;;;;;;7.57;7.18;;;;;;;0.52;79.84;102538.00;5042058;28;20056;-68
2022/03/14 01:58:22;;;;;;;7.70;7.30;;;;;;;0.57;79.20;102541.28;5037651;28;20025;-68
2022/03/14 02:00:48;;;;;;;8.07;7.68;;;;;;;0.59;79.56;102542.09;5044416;28;20029;-67
2022/03/14 02:03:13;;;;;;;7.60;7.20;;;;;;;0.54;79.86;102538.78;5040064;28;20117;-67
2022/03/14 02:05:40;;;;;;;7.70;7.30;;;;;;;0.56;79.79;102542.19;5029233;28;20060;-67
2022/03/14 02:08:07;;;;;;;7.50;7.10;;;;;;;0.49;80.06;102556.41;5032655;28;20037;-67
2022/03/14 02:10:34;;;;;;;7.43;7.03;;;;;;;0.52;80.06;102545.84;5032645;28;20112;-68
2022/03/14 02:13:09;;;;;;;8.07;7.68;;;;;;;0.49;80.05;102541.56;5031239;28;20449;-67
2022/03/14 02:15:37;;;;;;;8.00;7.60;;;;;;;0.51;80.02;102551.94;5032518;28;20440;-66
2022/03/14 02:18:03;;;;;;;9.50;8.90;;;;;;;0.44;79.92;102558.31;5026641;28;20152;-67
2022/03/14 02:20:28;;;;;;;7.88;7.47;;;;;;;0.36;80.51;102552.56;5032360;28;20040;-67
2022/03/14 02:22:54;;;;;;;7.80;7.40;;;;;;;0.45;80.38;102555.69;5041416;28;20610;-67
2022/03/14 02:25:19;;;;;;;7.63;7.22;;;;;;;0.47;80.56;102559.06;5036309;28;20021;-68
2022/03/14 02:27:45;;;;;;;7.93;7.53;;;;;;;0.39;80.55;102562.91;5048218;28;20583;-69
2022/03/14 02:30:11;;;;;;;7.53;7.13;;;;;;;0.39;80.31;102560.28;5034873;28;20083;-69
2022/03/14 02:32:41;;;;;;;7.40;7.00;;;;;;;0.37;80.37;102562.09;5038557;28;20099;-69
2022/03/14 02:35:08;;;;;;;7.55;7.15;;;;;;;0.37;80.57;102562.97;5041318;28;20025;-69
2022/03/14 02:37:34;;;;;;;7.80;7.40;;;;;;;0.44;80.67;102572.25;5034273;28;20018;-69
2022/03/14 02:40:00;;;;;;;7.50;7.10;;;;;;;0.42;80.21;102565.38;5041679;28;20056;-68
2022/03/14 02:42:26;;;;;;;7.40;7.00;;;;;;;0.41;80.88;102576.72;5039416;28;20422;-67
2022/03/14 02:44:51;;;;;;;7.60;7.20;;;;;;;0.38;80.52;102574.25;5041242;28;20191;-69
2022/03/14 02:47:17;;;;;;;7.55;7.15;;;;;;;0.19;81.15;102574.94;5032515;28;20021;-67
2022/03/14 02:49:42;;;;;;;7.93;7.53;;;;;;;0.05;82.41;102572.00;5047582;28;20040;-67
2022/03/14 02:52:08;;;;;;;7.85;7.45;;;;;;;-0.16;83.55;102562.34;5035731;28;20108;-66
2022/03/14 02:54:34;;;;;;;8.15;7.75;;;;;;;-0.10;83.24;102556.91;5046864;28;20050;-67
2022/03/14 02:57:00;;;;;;;7.90;7.50;;;;;;;0.09;82.39;102565.75;5037631;28;20043;-67
2022/03/14 02:59:26;;;;;;;7.30;6.97;;;;;;;0.14;82.23;102583.84;5034495;28;20061;-68
2022/03/14 03:01:52;;;;;;;7.80;7.40;;;;;;;0.28;82.13;102582.41;5034427;28;20025;-67
2022/03/14 03:04:17;;;;;;;7.40;7.00;;;;;;;0.23;82.41;102581.75;5042643;28;20112;-67
2022/03/14 03:06:45;;;;;;;7.10;6.80;;;;;;;0.22;82.10;102580.06;5035776;28;20527;-67
2022/03/14 03:09:11;;;;;;;7.80;7.40;;;;;;;0.35;81.90;102582.19;5042694;28;20044;-67
2022/03/14 03:11:37;;;;;;;7.85;7.45;;;;;;;0.24;81.61;102577.38;5032573;28;20025;-69
2022/03/14 03:14:03;;;;;;;7.05;6.75;;;;;;;0.19;82.11;102576.69;5032532;28;20021;-68
2022/03/14 03:16:29;;;;;;;7.82;7.43;;;;;;;0.24;81.68;102572.16;5034689;28;20029;-66
2022/03/14 03:18:56;;;;;;;7.30;7.00;;;;;;;0.22;81.35;102567.00;5034441;28;20025;-67
2022/03/14 03:21:22;;;;;;;7.97;7.57;;;;;;;0.34;80.89;102577.88;5033939;28;20028;-68
2022/03/14 03:23:48;;;;;;;8.25;7.75;;;;;;;0.28;81.10;102594.63;5030373;28;20029;-67
2022/03/14 03:26:13;;;;;;;8.32;7.82;;;;;;;0.23;81.95;102583.50;5030021;28;20116;-67
2022/03/14 03:28:39;;;;;;;7.70;7.30;;;;;;;0.23;81.42;102584.38;5011205;28;20032;-68
2022/03/14 03:31:10;;;;;;;8.15;7.70;;;;;;;0.29;82.11;102585.88;5028612;28;20029;-69
2022/03/14 03:33:36;;;;;;;7.78;7.38;;;;;;;0.35;81.02;102576.97;5048439;28;20029;-69
2022/03/14 03:36:02;;;;;;;7.60;7.20;;;;;;;0.26;81.05;102570.34;5033677;28;20057;-68
2022/03/14 03:38:28;;;;;;;7.50;7.10;;;;;;;0.31;81.71;102578.84;5031685;28;20030;-69
2022/03/14 03:40:54;;;;;;;7.95;7.55;;;;;;;0.35;81.13;102580.41;5025505;28;20014;-69
2022/03/14 03:43:20;;;;;;;7.32;6.97;;;;;;;0.23;81.22;102579.16;5026809;28;20607;-69
2022/03/14 03:45:45;;;;;;;7.85;7.45;;;;;;;0.31;81.67;102594.53;5028026;28;20025;-67
2022/03/14 03:48:11;;;;;;;7.82;7.43;;;;;;;0.28;81.12;102586.78;5030996;28;20126;-67
2022/03/14 03:50:38;;;;;;;9.23;8.63;;;;;;;0.27;81.17;102600.75;5028378;28;20499;-68
2022/03/14 03:53:03;;;;;;;7.38;7.03;;;;;;;0.24;81.13;102585.22;5041450;28;20129;-67
2022/03/14 03:55:29;;;;;;;7.90;7.50;;;;;;;0.23;81.69;102594.81;5039091;28;20165;-69
2022/03/14 03:57:55;;;;;;;8.05;7.63;;;;;;;0.20;81.62;102600.13;5043336;28;20033;-67
2022/03/14 04:00:22;;;;;;;7.53;7.13;;;;;;;0.34;80.89;102601.38;5041826;28;20504;-68
2022/03/14 04:02:48;;;;;;;7.43;7.03;;;;;;;0.33;81.32;102608.34;5037801;28;20110;-68
2022/03/14 04:05:16;;;;;;;7.75;7.35;;;;;;;0.31;81.07;102604.09;5032640;28;20100;-68
2022/03/14 04:07:43;;;;;;;7.75;7.35;;;;;;;0.31;81.32;102604.97;5033648;28;20022;-68
2022/03/14 04:10:12;;;;;;;7.45;7.05;;;;;;;0.36;81.31;102610.00;5029811;28;20033;-67
2022/03/14 04:12:39;;;;;;;7.15;6.85;;;;;;;0.34;80.84;102609.19;5037974;28;20452;-68
2022/03/14 04:15:09;;;;;;;7.22;6.88;;;;;;;0.31;80.98;102607.56;5038127;28;20021;-68
2022/03/14 04:17:36;;;;;;;7.38;6.97;;;;;;;0.24;81.38;102619.16;5050365;28;20032;-68
2022/03/14 04:20:04;;;;;;;7.57;7.18;;;;;;;0.17;81.14;102615.06;5027009;28;20025;-68
2022/03/14 04:22:31;;;;;;;7.75;7.35;;;;;;;0.25;82.18;102616.47;5040127;28;20075;-68
2022/03/14 04:24:57;;;;;;;7.45;7.05;;;;;;;0.31;81.94;102615.41;5042658;28;20022;-68
2022/03/14 04:27:23;;;;;;;7.40;7.00;;;;;;;0.22;82.25;102619.22;5050923;28;20032;-68
2022/03/14 04:29:49;;;;;;;7.60;7.20;;;;;;;0.19;82.25;102621.91;5038313;28;20025;-67
2022/03/14 04:32:14;;;;;;;7.32;6.95;;;;;;;0.25;81.97;102623.47;5045707;28;20039;-67
2022/03/14 04:34:40;;;;;;;7.22;6.90;;;;;;;0.24;81.42;102624.38;5046669;28;20397;-67
2022/03/14 04:37:05;;;;;;;6.93;6.63;;;;;;;0.32;81.45;102629.31;5036512;28;20040;-66
2022/03/14 04:39:31;;;;;;;7.35;6.95;;;;;;;0.28;81.04;102633.78;5052511;28;20032;-66
2022/03/14 04:41:57;;;;;;;6.93;6.63;;;;;;;0.35;81.09;102639.63;5038827;28;20020;-68
2022/03/14 04:44:23;;;;;;;7.05;6.75;;;;;;;0.38;80.79;102634.31;5049718;28;20028;-69
2022/03/14 04:46:48;;;;;;;7.22;6.88;;;;;;;0.38;80.94;102631.69;5037276;28;20481;-68
2022/03/14 04:49:14;;;;;;;7.80;7.40;;;;;;;0.40;81.13;102635.09;5061980;28;20021;-69
2022/03/14 04:51:40;;;;;;;8.02;7.63;;;;;;;0.39;80.99;102639.47;5027359;28;20098;-69
2022/03/14 04:54:06;;;;;;;7.88;7.47;;;;;;;0.41;80.70;102642.84;5039652;28;20018;-69
2022/03/14 04:56:32;;;;;;;7.78;7.38;;;;;;;0.40;80.96;102632.47;5045299;28;20079;-68
2022/03/14 04:58:58;;;;;;;7.75;7.35;;;;;;;0.44;81.58;102636.66;5021723;28;20040;-69
2022/03/14 05:01:26;;;;;;;7.68;7.28;;;;;;;0.38;81.28;102644.75;5030349;28;20025;-68
2022/03/14 05:03:52;;;;;;;7.70;7.30;;;;;;;0.18;81.60;102643.72;5031907;28;20029;-71
2022/03/14 05:06:18;;;;;;;7.85;7.45;;;;;;;0.27;81.84;102632.91;5021449;28;20395;-68
2022/03/14 05:08:44;;;;;;;8.10;7.70;;;;;;;0.27;82.24;102632.06;5030929;28;20083;-68
2022/03/14 05:11:11;;;;;;;8.43;7.93;;;;;;;0.30;83.33;102646.78;5030643;28;20037;-69
2022/03/14 05:13:36;;;;;;;7.47;7.10;;;;;;;0.36;82.62;102647.38;5042404;28;20033;-69
2022/03/14 05:16:03;;;;;;;7.75;7.35;;;;;;;0.38;82.70;102647.34;5039298;28;20022;-67
2022/03/14 05:18:30;;;;;;;8.52;8.02;;;;;;;0.48;82.15;102657.38;5043112;28;20468;-68
2022/03/14 05:20:56;;;;;;;8.00;7.60;;;;;;;0.40;82.32;102655.97;5031444;28;20029;-69
2022/03/14 05:23:23;;;;;;;7.78;7.38;;;;;;;0.56;82.32;102662.31;5045229;28;20084;-69
2022/03/14 05:25:48;;;;;;;8.02;7.63;;;;;;;0.59;81.68;102658.72;5043882;28;20031;-69
2022/03/14 05:28:14;;;;;;;7.90;7.50;;;;;;;0.61;81.91;102667.38;5034256;28;20033;-68
2022/03/14 05:30:39;;;;;;;8.23;7.75;;;;;;;0.36;82.83;102660.44;5043510;28;20862;-69
2022/03/14 05:33:06;;;;;;;8.38;7.88;;;;;;;0.32;83.89;102673.69;5033654;28;20121;-69
2022/03/14 05:35:31;;;;;;;8.00;7.60;;;;;;;0.55;83.27;102673.69;5027263;28;20025;-68
2022/03/14 05:37:57;;;;;;;7.28;6.93;;;;;;;0.52;82.71;102674.66;5034168;28;20028;-68
2022/03/14 05:40:23;;;;;;;8.43;7.90;;;;;;;0.63;83.39;102666.41;5016029;28;20480;-66
2022/03/14 05:42:49;;;;;;;8.68;8.18;;;;;;;0.71;82.83;102676.56;5044692;28;20387;-66
2022/03/14 05:45:16;;;;;;;8.00;7.57;;;;;;;0.86;81.82;102680.34;5030510;28;20029;-67
2022/03/14 05:47:42;;;;;;;7.85;7.45;;;;;;;0.83;82.47;102686.56;5030406;28;20025;-65
2022/03/14 05:50:08;;;;;;;8.50;8.00;;;;;;;0.85;81.85;102691.72;5029232;28;20083;-65
2022/03/14 05:52:33;;;;;;;7.85;7.45;;;;;;;1.65;80.78;102679.75;5035244;28;20400;-66
2022/03/14 05:54:59;;;;;;;7.90;7.50;;;;;;;1.20;80.15;102678.13;5051672;28;20081;-65
2022/03/14 05:57:25;;;;;;;8.07;7.68;;;;;;;1.04;80.38;102692.72;5033991;28;20514;-65
2022/03/14 05:59:50;;;;;;;7.93;7.53;;;;;;;1.02;80.80;102691.91;5029420;28;20029;-67
2022/03/14 06:02:23;;;;;;;8.32;7.85;;;;;;;0.94;80.80;102684.34;5029754;28;20033;-65
2022/03/14 06:04:50;;;;;;;7.70;7.30;;;;;;;1.05;80.19;102697.03;5028006;28;20471;-67
2022/03/14 06:07:16;;;;;;;8.63;8.13;;;;;;;0.98;80.66;102700.78;5028177;28;20608;-69
2022/03/14 06:09:42;;;;;;;8.85;8.35;;;;;;;0.98;80.15;102703.41;5030361;28;20025;-68
2022/03/14 06:12:08;;;;;;;8.15;7.70;;;;;;;0.94;80.75;102710.50;5030265;28;20393;-66
2022/03/14 06:14:35;;;;;;;9.20;8.60;;;;;;;1.01;80.20;102714.56;5030982;28;20036;-67
2022/03/14 06:17:01;;;;;;;8.70;8.20;;;;;;;1.13;79.81;102713.25;5028590;28;20522;-67
2022/03/14 06:19:26;;;;;;;8.80;8.30;;;;;;;1.17;79.42;102720.03;5030375;28;20167;-68
2022/03/14 06:21:52;;;;;;;8.93;8.40;;;;;;;1.24;78.82;102721.50;5038047;28;20056;-67
2022/03/14 06:24:17;;;;;;;7.97;7.57;;;;;;;1.19;77.30;102727.84;5042950;28;20030;-66
2022/03/14 06:26:43;;;;;;;9.18;8.57;;;;;;;1.12;77.36;102723.78;5029946;28;20026;-67
2022/03/14 06:29:09;;;;;;;8.10;7.70;;;;;;;1.33;76.94;102723.78;5031015;28;20033;-67
2022/03/14 06:31:35;;;;;;;10.95;10.15;;;;;;;1.40;76.29;102721.78;5031964;28;20143;-68
2022/03/14 06:34:01;;;;;;;8.23;7.72;;;;;;;1.48;75.84;102721.47;5030988;28;20072;-67
2022/03/14 06:36:28;;;;;;;7.85;7.45;;;;;;;1.33;75.60;102722.94;5042805;28;20492;-69
2022/03/14 06:38:56;;;;;;;8.52;8.02;;;;;;;1.41;75.34;102730.47;5045831;28;20128;-68
2022/03/14 06:41:22;;;;;;;8.90;8.40;;;;;;;1.33;75.21;102712.47;5040849;28;20024;-69
2022/03/14 06:43:48;;;;;;;8.27;7.80;;;;;;;1.56;74.81;102729.84;5032800;28;20033;-67
2022/03/14 06:46:13;;;;;;;8.30;7.85;;;;;;;1.57;74.74;102731.53;5044833;28;20028;-68
2022/03/14 06:48:40;;;;;;;7.80;7.40;;;;;;;1.36;75.20;102739.34;5035587;28;20024;-68
2022/03/14 06:51:09;;;;;;;8.45;7.95;;;;;;;1.71;74.21;102737.06;5043420;28;20047;-67
2022/03/14 06:53:34;;;;;;;7.90;7.50;;;;;;;1.70;73.39;102738.00;5030757;28;20444;-68
2022/03/14 06:55:59;;;;;;;8.20;7.80;;;;;;;1.81;73.76;102740.16;5027173;28;20085;-67
2022/03/14 06:58:26;;;;;;;8.15;7.75;;;;;;;1.91;73.54;102747.56;5031537;28;20037;-68
2022/03/14 07:00:53;;;;;;;8.02;7.63;;;;;;;1.86;72.67;102748.66;5047507;28;20031;-68
2022/03/14 07:03:18;;;;;;;8.32;7.82;;;;;;;1.79;73.52;102755.06;5038573;28;20033;-67
2022/03/14 07:05:44;;;;;;;8.18;7.78;;;;;;;1.85;73.21;102749.59;5036000;28;20083;-67
2022/03/14 07:08:10;;;;;;;8.38;7.88;;;;;;;1.88;73.25;102759.91;5037175;28;20433;-67
2022/03/14 07:10:36;;;;;;;7.90;7.50;;;;;;;1.81;72.88;102759.31;5048417;28;20044;-68
2022/03/14 07:13:02;;;;;;;8.40;7.90;;;;;;;2.05;72.01;102762.66;5030727;28;20016;-68
2022/03/14 07:15:28;;;;;;;7.97;7.57;;;;;;;2.12;72.40;102765.88;5040422;28;20025;-66
2022/03/14 07:17:53;;;;;;;7.93;7.53;;;;;;;2.10;72.29;102760.72;5045479;28;20099;-68
2022/03/14 07:20:20;;;;;;;7.70;7.30;;;;;;;2.26;71.78;102758.28;5035106;28;20029;-67
2022/03/14 07:23:00;;;;;;;8.43;7.93;;;;;;;2.23;72.28;102755.81;5040200;28;20516;-68
2022/03/14 07:25:28;;;;;;;10.30;9.60;;;;;;;2.26;71.85;102754.81;5026586;28;20057;-66
2022/03/14 07:27:56;;;;;;;7.88;7.47;;;;;;;2.45;71.76;102758.34;5030238;28;20021;-67
2022/03/14 07:30:22;;;;;;;8.60;8.10;;;;;;;2.00;73.07;102766.41;5033214;28;20500;-66
2022/03/14 07:32:48;;;;;;;7.82;7.43;;;;;;;2.30;71.03;102744.16;5024735;28;20048;-68
2022/03/14 07:35:14;;;;;;;8.25;7.75;;;;;;;2.33;71.49;102758.88;5031548;28;20396;-67
2022/03/14 07:37:40;;;;;;;8.68;8.18;;;;;;;2.38;71.63;102760.38;5029338;28;20056;-67
2022/03/14 07:40:11;;;;;;;8.38;7.88;;;;;;;2.77;69.99;102762.13;5029985;28;20206;-67
2022/03/14 07:42:44;;;;;;;9.80;9.20;;;;;;;2.83;69.57;102758.41;5025739;28;20040;-66
2022/03/14 07:45:16;;;;;;;7.95;7.55;;;;;;;2.58;69.41;102763.91;5032195;28;20469;-69
2022/03/14 07:47:42;;;;;;;8.00;7.60;;;;;;;2.66;68.28;102772.28;5025164;28;20030;-69
2022/03/14 07:50:09;;;;;;;8.02;7.63;;;;;;;2.94;67.63;102764.88;5029277;28;20096;-69
2022/03/14 07:52:36;;;;;;;7.90;7.50;;;;;;;2.52;69.31;102772.88;5041111;28;20033;-68
2022/03/14 07:55:02;;;;;;;8.35;7.90;;;;;;;2.46;68.55;102754.81;5030586;28;20049;-68
2022/03/14 07:57:30;;;;;;;8.52;8.02;;;;;;;2.60;68.80;102767.28;5034411;28;20076;-69
2022/03/14 07:59:55;;;;;;;7.75;7.35;;;;;;;2.95;67.22;102766.56;5031139;28;20033;-68
2022/03/14 08:02:20;;;;;;;7.60;7.20;;;;;;;3.28;65.23;102765.91;5031624;28;20056;-67
2022/03/14 08:04:46;;;;;;;7.55;7.15;;;;;;;3.81;63.33;102773.78;5028463;28;20032;-70
2022/03/14 08:07:12;;;;;;;7.60;7.20;;;;;;;4.54;61.23;102763.94;5029474;28;20052;-71
2022/03/14 08:09:37;;;;;;;8.00;7.60;;;;;;;5.06;59.08;102768.19;5027919;28;20037;-71
2022/03/14 08:12:04;;;;;;;6.88;6.57;;;;;;;5.06;58.34;102769.03;5032818;28;20401;-70
2022/03/14 08:14:30;;;;;;;7.80;7.40;;;;;;;5.48;56.90;102762.31;5033454;28;20522;-72
2022/03/14 08:16:56;;;;;;;8.35;7.90;;;;;;;5.71;56.04;102756.59;5027823;28;20030;-70
2022/03/14 08:19:21;;;;;;;7.88;7.47;;;;;;;5.67;53.37;102762.97;5026478;28;20032;-67
2022/03/14 08:21:47;;;;;;;8.07;7.68;;;;;;;5.78;53.90;102762.34;5025973;28;20100;-68
2022/03/14 08:24:13;;;;;;;7.60;7.20;;;;;;;5.70;53.36;102768.06;5030969;28;20034;-68
2022/03/14 08:26:39;;;;;;;8.80;8.30;;;;;;;6.09;52.41;102770.19;5032658;28;20506;-69
2022/03/14 08:29:05;;;;;;;8.80;8.30;;;;;;;5.88;50.82;102767.94;5032537;28;20100;-68
2022/03/14 08:31:32;;;;;;;8.00;7.60;;;;;;;6.50;47.17;102760.75;5033805;28;20108;-69
2022/03/14 08:33:58;;;;;;;7.95;7.55;;;;;;;6.83;46.11;102774.50;5026375;28;20025;-70
2022/03/14 08:36:23;;;;;;;8.15;7.75;;;;;;;6.99;44.65;102769.13;5028186;28;20123;-70
2022/03/14 08:38:49;;;;;;;8.35;7.95;;;;;;;7.15;42.77;102771.63;5026033;28;20055;-70
2022/03/14 08:41:16;;;;;;;8.18;7.78;;;;;;;7.58;41.13;102771.50;5026456;28;20033;-71
2022/03/14 08:43:43;;;;;;;7.70;7.30;;;;;;;7.67;39.79;102769.09;5065410;28;20033;-68
2022/03/14 08:46:10;;;;;;;8.07;7.68;;;;;;;7.05;40.78;102755.53;5039227;28;20407;-67
2022/03/14 08:48:36;;;;;;;8.05;7.65;;;;;;;7.50;40.12;102757.97;5035899;28;20107;-68
2022/03/14 08:51:02;;;;;;;7.75;7.35;;;;;;;7.54;40.63;102757.66;5034069;28;20080;-70
2022/03/14 08:53:27;;;;;;;7.45;7.13;;;;;;;8.50;38.04;102758.25;5029739;28;20044;-69
2022/03/14 08:55:55;;;;;;;7.22;6.93;;;;;;;8.00;38.67;102771.28;5033807;28;20037;-69
2022/03/14 08:58:21;;;;;;;7.60;7.22;;;;;;;7.89;38.54;102763.25;5028952;28;20345;-69
2022/03/14 09:00:46;;;;;;;8.48;8.07;;;;;;;8.29;38.01;102757.91;5029533;28;20099;-71
2022/03/14 09:03:12;;;;;;;8.48;8.07;;;;;;;7.85;39.55;102758.25;5029017;28;20025;-70
2022/03/14 09:05:38;;;;;;;8.10;7.70;;;;;;;7.38;39.75;102764.88;5027322;28;20032;-70
2022/03/14 09:08:04;;;;;;;7.88;7.47;;;;;;;7.76;39.14;102743.88;5038908;28;20020;-69
2022/03/14 09:10:36;;;;;;;8.30;7.90;;;;;;;7.76;39.22;102767.66;5036002;28;20036;-68
2022/03/14 09:13:03;;;;;;;8.75;8.27;;;;;;;8.26;38.90;102766.06;5030118;28;20029;-68
2022/03/14 09:15:28;;;;;;;8.98;8.48;;;;;;;7.76;38.86;102757.06;5031896;28;20037;-70
2022/03/14 09:18:03;;;;;;;7.68;7.28;;;;;;;7.57;39.77;102759.25;5029349;28;20113;-67
2022/03/14 09:20:30;;;;;;;7.88;7.47;;;;;;;7.37;39.23;102761.41;5032522;28;20435;-70
2022/03/14 09:22:56;;;;;;;7.97;7.57;;;;;;;7.70;38.52;102762.75;5031002;28;20044;-69
2022/03/14 09:25:22;;;;;;;7.95;7.55;;;;;;;7.74;38.98;102759.00;5050455;28;20021;-71
2022/03/14 09:27:49;;;;;;;7.05;6.75;;;;;;;7.31;40.29;102753.88;5038909;28;20017;-73
2022/03/14 09:30:16;;;;;;;8.85;8.35;;;;;;;6.82;39.88;102749.03;5032204;28;20029;-73
2022/03/14 09:32:42;;;;;;;7.70;7.32;;;;;;;7.16;40.46;102752.22;5040033;28;20044;-70
2022/03/14 09:35:09;;;;;;;8.23;7.82;;;;;;;7.26;39.89;102761.22;5047095;28;20037;-68
2022/03/14 09:37:38;;;;;;;8.50;8.10;;;;;;;6.88;40.16;102753.09;5021509;28;20021;-70
2022/03/14 09:40:06;;;;;;;8.10;7.70;;;;;;;7.03;39.74;102746.00;5034120;28;20033;-71
2022/03/14 09:42:35;;;;;;;8.38;7.97;;;;;;;7.22;40.01;102751.81;5033424;28;20029;-70
2022/03/14 09:45:04;;;;;;;9.15;8.65;;;;;;;7.20;40.27;102749.28;5036606;28;20041;-69
2022/03/14 09:47:30;;;;;;;8.18;7.78;;;;;;;6.69;40.73;102737.59;5032498;28;20033;-71
2022/03/14 09:49:57;;;;;;;7.85;7.45;;;;;;;6.48;41.17;102736.28;5028780;28;20515;-69
2022/03/14 09:52:23;;;;;;;9.68;9.07;;;;;;;7.69;40.14;102747.88;5042357;28;20017;-71
2022/03/14 09:54:49;;;;;;;8.13;7.72;;;;;;;7.65;38.69;102741.13;5032659;28;20044;-72
2022/03/14 09:57:15;;;;;;;8.20;7.80;;;;;;;7.54;37.99;102739.16;5049198;28;20407;-71
2022/03/14 09:59:43;;;;;;;8.68;8.18;;;;;;;7.16;38.90;102739.00;5029759;28;20647;-70
2022/03/14 10:02:12;;;;;;;8.65;8.15;;;;;;;7.00;39.95;102728.59;5028002;28;20029;-71
2022/03/14 10:04:40;;;;;;;8.52;8.10;;;;;;;6.77;40.09;102724.75;5030740;28;20087;-71
2022/03/14 10:07:08;;;;;;;8.10;7.70;;;;;;;6.17;42.22;102731.97;5042477;28;20060;-72
2022/03/14 10:09:35;;;;;;;9.63;9.07;;;;;;;6.64;40.24;102734.38;5037095;28;20021;-71
2022/03/14 10:12:01;;;;;;;9.38;8.82;;;;;;;6.67;40.77;102739.44;5032634;28;20524;-70
2022/03/14 10:14:27;;;;;;;9.05;8.55;;;;;;;5.99;41.92;102733.94;5031071;28;20504;-69
2022/03/14 10:16:56;;;;;;;8.82;8.32;;;;;;;6.35;41.37;102741.44;5030477;28;20069;-70
2022/03/14 10:19:30;;;;;;;7.80;7.40;;;;;;;6.42;40.87;102736.63;5033121;28;20034;-69
2022/03/14 10:21:55;;;;;;;8.35;7.95;;;;;;;6.30;41.90;102735.59;5020430;28;20055;-72
2022/03/14 10:24:22;;;;;;;9.98;9.38;;;;;;;6.31;41.61;102726.72;5031164;28;20045;-72
2022/03/14 10:26:49;;;;;;;8.27;7.88;;;;;;;5.79;42.22;102728.00;5046209;28;20020;-72
2022/03/14 10:29:14;;;;;;;8.73;8.23;;;;;;;6.22;41.32;102733.41;5035098;28;20388;-72
2022/03/14 10:31:45;;;;;;;9.02;8.52;;;;;;;6.61;40.66;102735.44;5037013;28;20036;-71
2022/03/14 10:34:17;;;;;;;8.90;8.40;;;;;;;6.96;40.13;102734.16;5034724;28;20044;-70
2022/03/14 10:36:49;;;;;;;7.95;7.55;;;;;;;7.36;38.80;102735.94;5033656;28;20095;-69
2022/03/14 10:39:16;;;;;;;7.75;7.35;;;;;;;5.97;41.87;102723.50;5033719;28;20391;-68
2022/03/14 10:41:48;;;;;;;7.88;7.47;;;;;;;6.49;40.73;102730.91;5036875;28;20074;-69
2022/03/14 10:44:24;;;;;;;7.93;7.53;;;;;;;5.90;41.39;102719.50;5036531;28;20055;-65
2022/03/14 10:46:50;;;;;;;7.40;7.07;;;;;;;7.55;39.47;102725.00;5029623;28;20538;-67
2022/03/14 10:49:16;;;;;;;7.15;6.85;;;;;;;6.43;40.18;102717.25;5037814;28;20041;-67
2022/03/14 10:51:56;;;;;;;7.72;7.32;;;;;;;6.55;41.56;102717.34;5034551;28;20028;-66
2022/03/14 10:54:22;;;;;;;8.60;8.13;;;;;;;7.02;40.63;102718.78;5031304;28;20041;-68
2022/03/14 10:57:03;;;;;;;9.07;8.57;;;;;;;4.76;43.24;102716.31;5018103;28;20037;-67
2022/03/14 10:59:43;;;;;;;8.82;8.32;;;;;;;6.25;41.48;102711.31;5030347;28;20079;-68
2022/03/14 11:02:19;;;;;;;8.57;8.10;;;;;;;5.96;42.04;102710.44;5026702;28;20053;-68
2022/03/14 11:04:48;;;;;;;9.27;8.77;;;;;;;6.50;41.43;102700.94;5029272;28;20029;-69
2022/03/14 11:07:15;;;;;;;7.70;7.30;;;;;;;6.44;41.27;102688.13;5029279;28;20025;-67
2022/03/14 11:09:40;;;;;;;8.07;7.68;;;;;;;6.05;42.03;102701.97;5034154;28;20031;-69
2022/03/14 11:12:09;;;;;;;8.25;7.85;;;;;;;5.77;42.58;102694.81;5038062;28;20108;-69
2022/03/14 11:14:36;;;;;;;8.27;7.88;;;;;;;5.80;42.52;102692.88;5027320;28;20037;-69
2022/03/14 11:17:15;;;;;;;7.43;7.03;;;;;;;5.91;42.00;102692.25;5041661;28;20084;-66
2022/03/14 11:19:42;;;;;;;7.45;7.15;;;;;;;6.64;41.34;102693.03;5032918;28;20025;-70
2022/03/14 11:22:13;;;;;;;9.00;8.50;;;;;;;5.78;42.28;102686.81;5029479;28;20116;-69
2022/03/14 11:24:50;;;;;;;7.70;7.30;;;;;;;5.18;44.03;102692.06;5033502;28;20049;-69
2022/03/14 11:27:26;;;;;;;7.70;7.30;;;;;;;5.55;43.57;102685.53;5037020;28;20036;-70
2022/03/14 11:29:54;;;;;;;8.00;7.60;;;;;;;6.27;42.35;102686.53;5044851;28;20041;-68
2022/03/14 11:32:21;;;;;;;8.02;7.63;;;;;;;6.51;42.21;102678.06;5031171;28;20366;-68